Terminal Aerodrome Forecast
Issued by NWS Wakefield, VA

Home | Current Version | Previous Version | Text Only | Print | Product List | Glossary On
Versions: 1 2 3 4 5 6 7 8 9 10 11 12 13 14 15 16 17 18 19 20 21
137
FTUS41 KAKQ 081754 CCA
TAFORF
TAF COR
KORF 081754Z 0818/0918 28011KT P6SM SCT009 OVC015
      TEMPO 0818/0819 BKN009
     FM082000 32007KT P6SM BKN045
     FM082200 33011KT P6SM BKN150
     FM090600 32017G26KT P6SM SKC=

USA.gov is the U.S. government's official web portal to all federal, state and local government web resources and services.